Time;durP1;ratioP1;P1;durP2;ratioP2;P2;SDS_P1;SDS_P2;PMS_P1;PMS_P2;Temp;Humidity;BMP_temperature;BMP_pressure;BME280_temperature;BME280_humidity;BME280_pressure;Samples;Min_cycle;Max_cycle;Signal;HPM_P1;HPM_P2
2022/09/12 00:00:25;;;;;;;18.45;14.55;;;;;;;14.43;100.00;100752.22;5039078;28;20041;-75
2022/09/12 00:02:54;;;;;;;17.63;12.25;;;;;;;14.38;100.00;100754.97;5044749;28;20459;-75
2022/09/12 00:05:20;;;;;;;21.10;12.65;;;;;;;14.31;100.00;100752.47;5044492;28;20049;-75
2022/09/12 00:07:45;;;;;;;15.75;13.73;;;;;;;14.19;100.00;100745.56;5042979;28;20037;-74
2022/09/12 00:10:10;;;;;;;15.35;11.75;;;;;;;14.07;100.00;100761.69;5041712;28;20017;-74
2022/09/12 00:12:36;;;;;;;22.15;14.02;;;;;;;13.98;100.00;100758.31;5041852;28;20037;-74
2022/09/12 00:15:02;;;;;;;14.80;11.07;;;;;;;13.93;100.00;100751.31;5045058;28;20037;-74
2022/09/12 00:17:27;;;;;;;13.68;10.63;;;;;;;13.90;100.00;100754.91;5043407;28;20401;-75
2022/09/12 00:19:52;;;;;;;13.63;10.32;;;;;;;13.88;100.00;100758.47;5043587;28;20403;-75
2022/09/12 00:22:17;;;;;;;14.02;10.48;;;;;;;13.85;100.00;100759.41;5043978;28;20396;-75
2022/09/12 00:24:43;;;;;;;17.70;11.40;;;;;;;13.85;100.00;100753.22;5043743;28;20499;-75
2022/09/12 00:27:08;;;;;;;17.83;12.32;;;;;;;13.78;100.00;100763.06;5041981;28;20527;-75
2022/09/12 00:29:33;;;;;;;11.52;9.15;;;;;;;13.72;100.00;100760.50;5045070;28;20029;-75
2022/09/12 00:31:59;;;;;;;18.65;13.48;;;;;;;13.63;100.00;100764.19;5036853;28;20450;-75
2022/09/12 00:34:24;;;;;;;16.08;10.50;;;;;;;13.64;100.00;100751.78;5043815;28;20140;-75
2022/09/12 00:36:49;;;;;;;14.25;11.10;;;;;;;13.59;100.00;100755.38;5043875;28;20039;-75
2022/09/12 00:39:16;;;;;;;17.02;11.98;;;;;;;13.59;100.00;100752.72;5042412;28;20068;-75
2022/09/12 00:41:42;;;;;;;19.67;13.43;;;;;;;13.57;100.00;100759.84;5044807;28;20123;-75
2022/09/12 00:44:10;;;;;;;16.63;12.75;;;;;;;13.56;100.00;100763.38;5038093;28;20040;-75
2022/09/12 00:46:54;;;;;;;19.15;14.20;;;;;;;13.56;100.00;100747.47;5043877;28;20060;-75
2022/09/12 00:49:30;;;;;;;23.48;13.68;;;;;;;13.52;100.00;100747.56;5038472;28;20029;-75
2022/09/12 00:52:31;;;;;;;18.30;13.20;;;;;;;13.48;100.00;100744.06;5037327;28;20472;-75
2022/09/12 00:55:19;;;;;;;20.80;14.75;;;;;;;13.46;100.00;100744.97;5010942;28;20092;-75
2022/09/12 00:57:56;;;;;;;18.38;14.73;;;;;;;13.42;100.00;100738.84;5034551;28;20048;-75
2022/09/12 01:00:24;;;;;;;16.20;11.40;;;;;;;13.40;100.00;100742.44;5042746;28;20083;-75
2022/09/12 01:02:53;;;;;;;17.45;11.90;;;;;;;13.35;100.00;100746.00;5044183;28;20033;-75
2022/09/12 01:05:21;;;;;;;10.82;8.95;;;;;;;13.26;100.00;100743.50;5037963;28;20056;-75
2022/09/12 01:07:48;;;;;;;12.48;10.45;;;;;;;13.20;100.00;100738.22;5042216;28;20033;-75
2022/09/12 01:10:14;;;;;;;12.60;10.07;;;;;;;13.16;100.00;100749.78;5043346;28;20118;-75
2022/09/12 01:12:41;;;;;;;21.23;12.25;;;;;;;13.18;100.00;100747.09;5041564;28;20104;-75
2022/09/12 01:15:07;;;;;;;78.30;13.82;;;;;;;13.24;100.00;100744.38;5041059;28;20469;-75
2022/09/12 01:17:50;;;;;;;18.73;12.50;;;;;;;13.35;100.00;100735.41;5042425;28;20037;-75
2022/09/12 01:20:33;;;;;;;15.32;10.73;;;;;;;13.42;100.00;100738.84;5041140;28;20083;-75
2022/09/12 01:23:09;;;;;;;22.38;16.33;;;;;;;13.47;100.00;100734.38;5038764;28;20510;-75
2022/09/12 01:25:59;;;;;;;13.65;10.40;;;;;;;13.58;100.00;100735.06;5038328;28;20051;-75
2022/09/12 01:28:51;;;;;;;21.02;13.88;;;;;;;13.62;100.00;100740.31;5038320;28;20162;-75
2022/09/12 01:31:26;;;;;;;20.60;14.25;;;;;;;13.67;100.00;100735.81;5028037;28;20065;-75
2022/09/12 01:34:04;;;;;;;18.15;12.32;;;;;;;13.75;100.00;100731.28;5041308;28;20646;-75
2022/09/12 01:36:51;;;;;;;23.83;16.33;;;;;;;13.86;100.00;100731.09;5039791;28;20033;-75
2022/09/12 01:39:28;;;;;;;16.67;12.50;;;;;;;13.90;100.00;100731.03;5038953;28;20048;-75
2022/09/12 01:42:15;;;;;;;19.40;14.23;;;;;;;13.90;100.00;100725.72;5039194;28;20052;-75
2022/09/12 01:45:05;;;;;;;23.80;17.80;;;;;;;13.94;100.00;100722.13;5042630;28;20036;-75
2022/09/12 01:47:50;;;;;;;18.08;15.07;;;;;;;14.00;100.00;100721.13;5042669;28;20040;-75
2022/09/12 01:50:24;;;;;;;15.95;11.18;;;;;;;14.09;100.00;100714.78;5041565;28;20039;-75
2022/09/12 01:52:57;;;;;;;18.73;12.98;;;;;;;14.15;100.00;100714.69;5043801;28;20416;-75
2022/09/12 01:55:31;;;;;;;16.85;12.45;;;;;;;14.15;100.00;100714.69;5041670;28;20037;-75
2022/09/12 01:58:04;;;;;;;27.13;21.42;;;;;;;14.13;100.00;100717.38;5043693;28;20037;-75
2022/09/12 02:00:33;;;;;;;23.58;17.33;;;;;;;14.15;100.00;100706.75;5041692;28;20041;-75
2022/09/12 02:03:08;;;;;;;26.80;18.05;;;;;;;14.21;100.00;100709.28;5040763;28;20606;-75
2022/09/12 02:05:46;;;;;;;26.45;19.70;;;;;;;14.23;100.00;100708.34;5051023;28;20049;-75
2022/09/12 02:08:21;;;;;;;25.60;19.40;;;;;;;14.24;100.00;100703.91;5040492;28;20069;-75
2022/09/12 02:10:55;;;;;;;22.73;15.57;;;;;;;14.22;100.00;100706.56;5037932;28;20048;-75
2022/09/12 02:13:32;;;;;;;23.35;14.98;;;;;;;14.21;100.00;100714.56;5040664;28;20037;-75
2022/09/12 02:16:04;;;;;;;23.50;15.90;;;;;;;14.18;100.00;100714.63;5036736;28;20490;-75
2022/09/12 02:18:33;;;;;;;25.67;16.98;;;;;;;14.12;100.00;100718.28;5042391;28;20124;-75
2022/09/12 02:21:00;;;;;;;23.23;18.25;;;;;;;14.09;100.00;100718.31;5043478;28;20044;-76
2022/09/12 02:23:29;;;;;;;20.98;15.45;;;;;;;14.05;100.00;100716.63;5040145;28;20044;-75
2022/09/12 02:26:00;;;;;;;22.92;16.42;;;;;;;14.06;100.00;100720.16;5041624;28;20041;-75
2022/09/12 02:28:33;;;;;;;22.65;17.02;;;;;;;14.05;100.00;100719.28;5042766;28;20037;-75
2022/09/12 02:31:24;;;;;;;31.23;19.42;;;;;;;14.07;100.00;100719.25;5037301;28;20029;-76
2022/09/12 02:34:22;;;;;;;23.90;17.52;;;;;;;14.03;100.00;100710.47;5036594;28;20107;-76
2022/09/12 02:37:01;;;;;;;24.33;18.02;;;;;;;14.01;100.00;100710.47;5040257;28;20102;-75
2022/09/12 02:39:26;;;;;;;22.42;16.50;;;;;;;14.02;100.00;100720.22;5036971;28;20550;-75
2022/09/12 02:41:54;;;;;;;28.30;19.30;;;;;;;13.96;100.00;100715.03;5041294;28;20041;-75
2022/09/12 02:44:21;;;;;;;23.65;17.77;;;;;;;13.93;100.00;100715.06;5041698;28;20431;-75
2022/09/12 02:46:51;;;;;;;32.58;22.80;;;;;;;13.93;100.00;100708.88;5039948;28;20041;-75
2022/09/12 02:49:16;;;;;;;30.33;21.23;;;;;;;13.94;100.00;100705.34;5036302;28;20037;-75
2022/09/12 02:51:42;;;;;;;24.00;19.52;;;;;;;13.96;100.00;100708.81;5042949;28;20047;-75
2022/09/12 02:54:08;;;;;;;23.50;16.27;;;;;;;13.95;100.00;100715.91;5041131;28;20041;-75
2022/09/12 02:56:35;;;;;;;22.80;16.63;;;;;;;13.90;100.00;100708.94;5032576;28;20116;-75
2022/09/12 02:59:05;;;;;;;21.15;17.02;;;;;;;13.89;100.00;100713.38;5042180;28;20066;-75
2022/09/12 03:01:56;;;;;;;26.10;17.60;;;;;;;13.81;100.00;100718.81;5036090;28;20135;-75
2022/09/12 03:04:49;;;;;;;23.80;16.55;;;;;;;13.85;100.00;100722.25;5035325;28;20515;-75
2022/09/12 03:07:36;;;;;;;25.67;18.95;;;;;;;13.86;100.00;100712.53;5037647;28;20164;-75
2022/09/12 03:10:12;;;;;;;21.30;17.35;;;;;;;13.89;100.00;100710.72;5037215;28;20030;-75
2022/09/12 03:12:51;;;;;;;27.10;20.00;;;;;;;13.92;100.00;100709.78;5039345;28;20106;-75
2022/09/12 03:15:27;;;;;;;25.45;20.15;;;;;;;13.97;100.00;100711.47;5052306;28;20061;-75
2022/09/12 03:18:06;;;;;;;30.35;20.80;;;;;;;14.05;100.00;100719.28;5039119;28;20033;-75
2022/09/12 03:21:09;;;;;;;25.70;17.80;;;;;;;14.11;100.00;100713.00;5041196;28;20444;-75
2022/09/12 03:23:49;;;;;;;27.80;20.77;;;;;;;14.13;100.00;100713.84;5035544;28;20041;-75
2022/09/12 03:26:28;;;;;;;22.75;17.05;;;;;;;14.12;100.00;100715.63;5038794;28;20087;-75
2022/09/12 03:28:55;;;;;;;24.50;17.63;;;;;;;14.14;100.00;100727.06;5041376;28;20480;-75
2022/09/12 03:31:21;;;;;;;20.73;16.15;;;;;;;14.12;100.00;100720.03;5043921;28;20087;-75
2022/09/12 03:33:46;;;;;;;24.00;16.98;;;;;;;14.03;100.00;100729.91;5045675;28;20037;-75
2022/09/12 03:36:19;;;;;;;21.42;16.20;;;;;;;14.00;100.00;100727.31;5042955;28;20041;-75
2022/09/12 03:38:45;;;;;;;22.42;15.93;;;;;;;13.98;100.00;100718.50;5041121;28;20095;-75
2022/09/12 03:41:10;;;;;;;24.73;17.95;;;;;;;13.95;100.00;100721.22;5043139;28;20040;-76
2022/09/12 03:43:35;;;;;;;25.10;18.13;;;;;;;13.91;100.00;100724.84;5045129;28;20052;-75
2022/09/12 03:46:01;;;;;;;19.15;15.02;;;;;;;13.86;100.00;100721.38;5043213;28;20045;-75
2022/09/12 03:48:26;;;;;;;28.70;18.50;;;;;;;13.79;100.00;100725.03;5044729;28;20380;-75
2022/09/12 03:50:51;;;;;;;18.25;15.63;;;;;;;13.74;100.00;100717.13;5045454;28;20033;-75
2022/09/12 03:53:17;;;;;;;19.50;15.38;;;;;;;13.69;100.00;100723.41;5043522;28;20033;-75
2022/09/12 03:55:42;;;;;;;23.50;17.30;;;;;;;13.58;100.00;100723.59;5044066;28;20121;-75
2022/09/12 03:58:07;;;;;;;29.48;20.60;;;;;;;13.52;100.00;100721.91;5040690;28;20025;-75
2022/09/12 04:00:33;;;;;;;24.58;18.33;;;;;;;13.49;100.00;100724.63;5041081;28;20044;-75
2022/09/12 04:02:58;;;;;;;23.40;17.83;;;;;;;13.45;100.00;100720.25;5044064;28;20044;-75
2022/09/12 04:05:24;;;;;;;26.20;18.65;;;;;;;13.40;100.00;100722.09;5042119;28;20033;-75
2022/09/12 04:07:50;;;;;;;23.25;18.10;;;;;;;13.36;100.00;100723.03;5045296;28;20508;-75
2022/09/12 04:10:15;;;;;;;32.47;20.80;;;;;;;13.29;100.00;100716.94;5041725;28;20057;-75
2022/09/12 04:12:41;;;;;;;24.73;18.40;;;;;;;13.23;100.00;100722.31;5042140;28;20068;-75
2022/09/12 04:15:07;;;;;;;19.50;16.13;;;;;;;13.20;100.00;100724.13;5044437;28;20036;-75
2022/09/12 04:17:33;;;;;;;26.05;17.95;;;;;;;13.13;100.00;100715.38;5042518;28;20446;-75
2022/09/12 04:19:58;;;;;;;26.05;19.40;;;;;;;13.10;100.00;100720.72;5045304;28;20083;-75
2022/09/12 04:22:24;;;;;;;25.40;17.50;;;;;;;13.07;100.00;100726.94;5045233;28;20541;-75
2022/09/12 04:24:49;;;;;;;27.67;19.38;;;;;;;13.06;100.00;100727.81;5042835;28;20079;-76
2022/09/12 04:27:14;;;;;;;26.73;17.20;;;;;;;13.04;100.00;100732.25;5042803;28;20041;-75
2022/09/12 04:29:40;;;;;;;28.48;19.88;;;;;;;13.04;100.00;100726.97;5043998;28;20033;-75
2022/09/12 04:32:05;;;;;;;29.52;19.45;;;;;;;13.03;100.00;100743.78;5041005;28;20033;-76
2022/09/12 04:34:31;;;;;;;28.35;18.15;;;;;;;13.07;100.00;100721.66;5045017;28;20056;-76
2022/09/12 04:36:56;;;;;;;16.02;14.27;;;;;;;13.15;100.00;100740.97;5040366;28;20108;-76
2022/09/12 04:39:22;;;;;;;21.35;16.38;;;;;;;13.14;100.00;100733.91;5044087;28;20483;-76
2022/09/12 04:41:47;;;;;;;18.23;15.27;;;;;;;13.20;100.00;100737.34;5042739;28;20076;-75
2022/09/12 04:44:14;;;;;;;30.45;18.48;;;;;;;13.26;100.00;100743.50;5043252;28;20044;-75
2022/09/12 04:46:43;;;;;;;26.95;19.13;;;;;;;13.33;100.00;100737.19;5042210;28;20040;-76
2022/09/12 04:49:09;;;;;;;26.95;19.20;;;;;;;13.36;100.00;100744.22;5036805;28;20217;-76
2022/09/12 04:51:36;;;;;;;25.25;17.42;;;;;;;13.43;100.00;100735.28;5040982;28;20531;-76
2022/09/12 04:54:07;;;;;;;28.33;19.67;;;;;;;13.45;100.00;100744.13;5035488;28;20411;-76
2022/09/12 04:56:37;;;;;;;21.05;16.45;;;;;;;13.51;100.00;100744.00;5027783;28;20041;-76
2022/09/12 04:59:02;;;;;;;25.25;18.17;;;;;;;13.54;100.00;100753.69;5036375;28;20048;-76
2022/09/12 05:01:29;;;;;;;28.58;19.65;;;;;;;13.62;100.00;100745.63;5042635;28;20040;-76
2022/09/12 05:03:55;;;;;;;25.27;17.45;;;;;;;13.75;100.00;100749.84;5040167;28;20640;-76
2022/09/12 05:06:24;;;;;;;25.85;20.25;;;;;;;13.72;100.00;100739.28;5043049;28;20038;-76
2022/09/12 05:08:50;;;;;;;29.15;19.48;;;;;;;13.71;100.00;100741.06;5041252;28;20041;-76
2022/09/12 05:11:19;;;;;;;22.05;17.23;;;;;;;13.79;100.00;100748.91;5044119;28;20044;-76
2022/09/12 05:13:44;;;;;;;29.00;19.33;;;;;;;13.81;100.00;100739.16;5039942;28;20041;-76
2022/09/12 05:16:11;;;;;;;20.73;15.57;;;;;;;13.87;100.00;100738.19;5042556;28;20041;-76
2022/09/12 05:18:37;;;;;;;23.50;17.40;;;;;;;13.96;100.00;100745.97;5042116;28;20128;-76
2022/09/12 05:21:05;;;;;;;35.97;23.27;;;;;;;14.01;100.00;100752.94;5044228;28;20052;-76
2022/09/12 05:23:32;;;;;;;38.78;23.20;;;;;;;14.08;100.00;100752.84;5035335;28;20052;-76
2022/09/12 05:25:59;;;;;;;24.10;18.25;;;;;;;14.17;100.00;100760.66;5041792;28;20041;-76
2022/09/12 05:28:28;;;;;;;28.58;20.50;;;;;;;14.10;100.00;100761.69;5040679;28;20040;-76
2022/09/12 05:31:07;;;;;;;30.52;21.50;;;;;;;14.16;100.00;100761.56;5039625;28;20037;-76
2022/09/12 05:33:33;;;;;;;33.75;21.52;;;;;;;14.16;100.00;100766.88;5020641;28;20034;-76
2022/09/12 05:35:59;;;;;;;26.33;20.00;;;;;;;14.18;100.00;100762.41;5041736;28;20047;-76
2022/09/12 05:38:27;;;;;;;26.20;21.67;;;;;;;14.08;100.00;100766.13;5042598;28;20025;-76
2022/09/12 05:40:53;;;;;;;23.42;17.95;;;;;;;14.11;100.00;100761.63;5043937;28;20040;-76
2022/09/12 05:43:19;;;;;;;24.25;19.38;;;;;;;14.10;100.00;100759.91;5040745;28;20455;-76
2022/09/12 05:45:44;;;;;;;25.80;17.95;;;;;;;14.19;100.00;100766.81;5035429;28;20037;-76
2022/09/12 05:48:10;;;;;;;22.30;18.40;;;;;;;14.18;100.00;100765.94;5041879;28;20402;-76
2022/09/12 05:50:35;;;;;;;24.50;19.20;;;;;;;14.21;100.00;100763.22;5040367;28;20407;-76
2022/09/12 05:53:00;;;;;;;27.98;20.33;;;;;;;14.25;100.00;100772.00;5040308;28;20402;-77
2022/09/12 05:55:26;;;;;;;18.17;14.85;;;;;;;14.40;100.00;100769.09;5042680;28;20597;-76
2022/09/12 05:57:51;;;;;;;22.73;18.00;;;;;;;14.37;100.00;100771.78;5038287;28;20551;-77
2022/09/12 06:00:18;;;;;;;20.15;17.38;;;;;;;14.39;100.00;100774.44;5044958;28;20028;-77
2022/09/12 06:02:43;;;;;;;22.45;18.40;;;;;;;14.38;100.00;100765.59;5025365;28;20044;-77
2022/09/12 06:05:08;;;;;;;28.95;18.70;;;;;;;14.41;100.00;100764.69;5040335;28;20032;-77
2022/09/12 06:07:35;;;;;;;21.40;16.40;;;;;;;14.46;100.00;100769.00;5036909;28;20403;-77
2022/09/12 06:10:01;;;;;;;20.67;15.80;;;;;;;14.52;100.00;100769.78;5040130;28;20038;-77
2022/09/12 06:12:29;;;;;;;25.02;17.88;;;;;;;14.65;100.00;100769.53;5027987;28;20037;-77
2022/09/12 06:14:54;;;;;;;22.88;16.88;;;;;;;14.82;100.00;100776.31;5041014;28;20030;-77
2022/09/12 06:17:21;;;;;;;18.63;15.60;;;;;;;14.95;100.00;100772.50;5041890;28;20124;-77
2022/09/12 06:19:46;;;;;;;21.35;16.40;;;;;;;15.02;100.00;100773.25;5040855;28;20033;-77
2022/09/12 06:22:12;;;;;;;20.60;16.30;;;;;;;15.10;100.00;100782.81;5042155;28;20037;-77
2022/09/12 06:24:38;;;;;;;19.85;17.73;;;;;;;15.14;100.00;100786.28;5039699;28;20090;-76
2022/09/12 06:27:03;;;;;;;22.45;19.95;;;;;;;15.16;100.00;100791.56;5037831;28;20112;-77
2022/09/12 06:29:31;;;;;;;25.83;19.58;;;;;;;15.17;100.00;100794.22;5042051;28;20514;-77
2022/09/12 06:31:56;;;;;;;17.20;15.40;;;;;;;15.19;100.00;100791.50;5041140;28;20037;-77
2022/09/12 06:34:22;;;;;;;18.98;16.98;;;;;;;15.22;100.00;100796.75;5040655;28;20520;-77
2022/09/12 06:36:48;;;;;;;19.15;16.83;;;;;;;15.28;100.00;100789.53;5042700;28;20040;-77
2022/09/12 06:39:19;;;;;;;22.80;18.50;;;;;;;15.40;100.00;100792.81;5039361;28;20045;-77
2022/09/12 06:41:45;;;;;;;21.40;17.52;;;;;;;15.46;100.00;100792.72;5041516;28;20032;-77
2022/09/12 06:44:14;;;;;;;24.30;21.02;;;;;;;15.54;99.73;100794.28;5041512;28;20055;-77
2022/09/12 06:46:40;;;;;;;19.52;16.90;;;;;;;15.76;99.66;100802.66;5040091;28;20059;-77
2022/09/12 06:49:06;;;;;;;23.25;18.33;;;;;;;15.85;98.79;100800.69;5035857;28;20543;-77
2022/09/12 06:51:33;;;;;;;26.92;19.13;;;;;;;15.89;97.82;100800.59;5041676;28;20087;-78
2022/09/12 06:53:59;;;;;;;21.92;16.55;;;;;;;15.89;97.53;100799.72;5041440;28;20040;-77
2022/09/12 06:56:26;;;;;;;22.73;17.33;;;;;;;15.93;97.65;100802.28;5041346;28;20071;-77
2022/09/12 06:58:55;;;;;;;20.88;16.90;;;;;;;16.06;96.37;100791.31;5035567;28;20044;-77
2022/09/12 07:01:22;;;;;;;20.27;16.30;;;;;;;16.10;95.69;100793.00;5045753;28;20037;-77
2022/09/12 07:03:50;;;;;;;19.05;16.58;;;;;;;16.24;95.75;100797.97;5046826;28;20128;-77
2022/09/12 07:06:18;;;;;;;27.48;17.30;;;;;;;16.33;95.55;100797.75;5047532;28;20548;-77
2022/09/12 07:08:43;;;;;;;17.58;15.68;;;;;;;16.40;94.50;100796.66;5048514;28;20116;-78
2022/09/12 07:11:22;;;;;;;18.80;15.85;;;;;;;16.37;92.90;100789.66;5045901;28;20152;-78
2022/09/12 07:13:50;;;;;;;23.52;15.45;;;;;;;16.48;93.80;100794.72;5057289;28;20087;-78
2022/09/12 07:16:16;;;;;;;17.38;15.15;;;;;;;16.43;92.91;100797.47;5047678;28;20119;-78
2022/09/12 07:18:42;;;;;;;16.65;14.95;;;;;;;16.32;92.89;100793.34;5045709;28;20044;-78
2022/09/12 07:21:13;;;;;;;14.77;13.20;;;;;;;16.27;92.99;100808.56;5048577;28;20060;-78
2022/09/12 07:23:40;;;;;;;16.40;14.02;;;;;;;16.17;94.28;100799.94;5047398;28;20127;-77
2022/09/12 07:26:08;;;;;;;14.93;13.38;;;;;;;16.26;93.92;100804.16;5042180;28;20059;-77
2022/09/12 07:28:34;;;;;;;16.83;14.77;;;;;;;16.17;94.56;100795.50;5046824;28;20072;-77
2022/09/12 07:31:07;;;;;;;17.85;14.45;;;;;;;16.17;94.77;100795.50;5048444;28;20037;-77
2022/09/12 07:33:33;;;;;;;14.57;13.07;;;;;;;16.29;93.67;100796.06;5050042;28;20068;-77
2022/09/12 07:36:04;;;;;;;15.93;13.52;;;;;;;16.27;93.35;100792.56;5045701;28;20033;-77
2022/09/12 07:38:30;;;;;;;14.73;13.10;;;;;;;16.22;93.25;100792.72;5049468;28;20047;-77
2022/09/12 07:40:55;;;;;;;13.80;11.63;;;;;;;16.33;93.36;100793.31;5047268;28;20041;-78
2022/09/12 07:43:21;;;;;;;15.20;13.05;;;;;;;16.40;91.46;100786.00;5053445;28;20042;-77
2022/09/12 07:45:46;;;;;;;13.80;12.38;;;;;;;16.59;92.12;100792.63;5047175;28;20040;-78
2022/09/12 07:48:12;;;;;;;12.00;10.68;;;;;;;16.67;90.89;100796.88;5048317;28;20075;-77
2022/09/12 07:50:38;;;;;;;12.48;11.18;;;;;;;16.79;89.46;100796.56;5043590;28;20041;-78
2022/09/12 07:53:04;;;;;;;17.58;11.43;;;;;;;16.90;90.20;100791.81;5045772;28;20083;-78
2022/09/12 07:55:30;;;;;;;13.60;12.05;;;;;;;17.00;89.25;100795.06;5049279;28;20434;-78
2022/09/12 07:57:55;;;;;;;15.35;11.85;;;;;;;16.86;89.67;100796.34;5048329;28;20119;-77
2022/09/12 08:00:20;;;;;;;14.93;13.32;;;;;;;16.84;88.22;100794.63;5044763;28;20033;-78
2022/09/12 08:02:52;;;;;;;11.48;10.32;;;;;;;16.88;88.99;100803.44;5046827;28;20138;-78
2022/09/12 08:05:19;;;;;;;13.98;10.63;;;;;;;16.85;88.34;100799.94;5037632;28;20025;-78
2022/09/12 08:07:45;;;;;;;19.13;10.10;;;;;;;16.84;88.57;100799.97;5044714;28;20122;-78
2022/09/12 08:10:10;;;;;;;11.95;10.57;;;;;;;16.97;87.99;100798.72;5042577;28;20034;-78
2022/09/12 08:12:35;;;;;;;11.85;9.95;;;;;;;17.09;87.55;100801.03;5044399;28;20411;-77
2022/09/12 08:15:01;;;;;;;11.98;9.82;;;;;;;17.18;86.59;100799.00;5036150;28;20103;-77
2022/09/12 08:17:27;;;;;;;11.25;10.15;;;;;;;17.13;84.98;100808.94;5040431;28;20568;-77
2022/09/12 08:19:53;;;;;;;16.35;14.65;;;;;;;17.33;86.19;100805.69;5041556;28;20517;-78
2022/09/12 08:22:20;;;;;;;11.48;10.27;;;;;;;17.59;83.85;100800.44;5047945;28;20186;-78
2022/09/12 08:24:46;;;;;;;10.23;9.25;;;;;;;17.90;82.91;100800.38;5044193;28;20040;-78
2022/09/12 08:27:12;;;;;;;9.68;8.75;;;;;;;18.04;82.17;100799.06;5042223;28;20120;-78
2022/09/12 08:29:37;;;;;;;11.30;9.38;;;;;;;18.29;79.24;100799.13;5042737;28;20113;-78
2022/09/12 08:32:02;;;;;;;9.15;8.20;;;;;;;18.34;78.04;100792.72;5044758;28;20048;-78
2022/09/12 08:34:28;;;;;;;7.80;7.10;;;;;;;18.43;76.59;100795.97;5041662;28;20042;-78
2022/09/12 08:36:53;;;;;;;9.65;8.55;;;;;;;18.61;76.95;100800.69;5044609;28;20029;-77
2022/09/12 08:39:19;;;;;;;11.02;9.93;;;;;;;18.70;74.48;100800.34;5040839;28;20458;-77
2022/09/12 08:41:46;;;;;;;8.80;7.90;;;;;;;18.87;75.79;100796.25;5042973;28;20033;-78
2022/09/12 08:44:37;;;;;;;7.97;7.18;;;;;;;19.10;71.02;100798.06;5038097;28;20474;-78
2022/09/12 08:47:27;;;;;;;7.93;7.22;;;;;;;19.03;70.16;100794.75;5040180;28;20037;-78
2022/09/12 08:50:16;;;;;;;6.80;6.20;;;;;;;19.12;69.81;100791.72;5043556;28;20127;-78
2022/09/12 08:53:02;;;;;;;7.97;6.20;;;;;;;19.20;71.53;100789.66;5042820;28;20040;-78
2022/09/12 08:55:35;;;;;;;7.68;6.97;;;;;;;19.07;72.24;100788.34;5022801;28;20606;-78
2022/09/12 08:58:19;;;;;;;7.70;7.00;;;;;;;18.94;72.50;100797.75;5034272;28;20092;-78
2022/09/12 09:00:57;;;;;;;7.25;6.55;;;;;;;18.68;72.90;100787.97;5041565;28;20511;-78
2022/09/12 09:03:55;;;;;;;7.07;6.38;;;;;;;18.60;73.08;100793.56;5040804;28;20034;-78
2022/09/12 09:06:50;;;;;;;6.50;5.80;;;;;;;18.66;74.49;100782.69;5041131;28;20062;-78
2022/09/12 09:09:50;;;;;;;8.50;7.70;;;;;;;18.65;72.86;100785.41;5024241;28;20106;-78
2022/09/12 09:12:37;;;;;;;7.95;6.63;;;;;;;18.81;73.45;100779.50;5035743;28;20036;-78
2022/09/12 09:15:20;;;;;;;6.45;5.95;;;;;;;19.02;72.55;100785.88;5040885;28;20471;-78
2022/09/12 09:18:09;;;;;;;6.93;5.40;;;;;;;19.09;69.88;100775.78;5035569;28;20455;-78
2022/09/12 09:20:48;;;;;;;9.45;6.57;;;;;;;19.21;70.47;100780.69;5038159;28;20025;-78
2022/09/12 09:23:29;;;;;;;6.13;5.63;;;;;;;19.39;67.78;100771.09;5022288;28;20121;-78
2022/09/12 09:25:58;;;;;;;5.70;5.20;;;;;;;19.43;69.63;100769.16;5036251;28;20040;-77
2022/09/12 09:28:42;;;;;;;5.47;4.97;;;;;;;19.76;67.12;100771.47;5030511;28;20396;-77
2022/09/12 09:31:20;;;;;;;5.00;4.55;;;;;;;19.77;63.42;100773.19;5022385;28;20125;-78
2022/09/12 09:33:47;;;;;;;6.15;4.90;;;;;;;19.73;62.49;100779.59;5035486;28;20045;-78
2022/09/12 09:36:21;;;;;;;4.72;4.32;;;;;;;19.71;63.28;100768.97;5035652;28;20037;-77
2022/09/12 09:39:04;;;;;;;5.97;4.70;;;;;;;19.67;61.66;100762.84;5041435;28;20033;-78
2022/09/12 09:41:54;;;;;;;5.30;4.90;;;;;;;19.45;61.82;100767.28;5039241;28;20029;-78
2022/09/12 09:44:19;;;;;;;5.00;4.50;;;;;;;19.62;62.28;100763.94;5038161;28;20052;-78
2022/09/12 09:46:46;;;;;;;4.65;4.20;;;;;;;19.96;62.60;100771.50;5040505;28;20519;-78
2022/09/12 09:49:13;;;;;;;5.57;4.50;;;;;;;20.09;59.58;100772.72;5040836;28;20029;-78
2022/09/12 09:51:41;;;;;;;5.35;4.82;;;;;;;20.20;58.98;100771.41;5037620;28;20048;-78
2022/09/12 09:54:43;;;;;;;5.20;4.72;;;;;;;20.17;54.88;100772.41;5042035;28;20419;-78
2022/09/12 09:57:27;;;;;;;;;;;;;;;20.32;55.73;100765.53;5042959;28;20061;-77
2022/09/12 09:59:52;;;;;;;5.43;4.93;;;;;;;20.54;56.42;100769.09;5037539;28;20414;-78
2022/09/12 10:02:22;;;;;;;4.65;4.25;;;;;;;20.60;56.51;100772.44;5043378;28;20041;-78
2022/09/12 10:04:57;;;;;;;5.30;4.90;;;;;;;20.28;57.99;100772.00;5039916;28;20518;-77
2022/09/12 10:07:25;;;;;;;5.38;4.07;;;;;;;20.27;59.04;100771.09;5037359;28;20399;-77
2022/09/12 10:10:18;;;;;;;5.35;4.53;;;;;;;20.14;56.97;100765.38;5035453;28;20032;-77
2022/09/12 10:12:44;;;;;;;5.10;4.60;;;;;;;19.99;57.16;100771.41;5034038;28;20180;-77
2022/09/12 10:15:22;;;;;;;5.35;4.85;;;;;;;19.91;57.19;100765.47;5032805;28;20049;-77
2022/09/12 10:17:49;;;;;;;6.50;5.18;;;;;;;20.09;57.11;100764.69;5029988;28;20112;-77
2022/09/12 10:20:41;;;;;;;5.93;4.60;;;;;;;20.28;55.13;100753.22;5035067;28;20045;-77
2022/09/12 10:23:36;;;;;;;5.75;5.25;;;;;;;20.41;55.77;100762.47;5041742;28;20045;-77
2022/09/12 10:26:07;;;;;;;5.32;4.82;;;;;;;20.63;56.84;100754.38;5031985;28;20526;-77
2022/09/12 10:28:44;;;;;;;6.28;5.68;;;;;;;20.97;55.17;100759.09;5036182;28;20116;-77
2022/09/12 10:31:14;;;;;;;5.35;4.95;;;;;;;20.92;55.00;100754.88;5034059;28;20091;-78
2022/09/12 10:33:52;;;;;;;6.10;5.22;;;;;;;20.83;54.11;100755.28;5038301;28;20492;-77
2022/09/12 10:36:19;;;;;;;5.15;4.75;;;;;;;20.75;54.97;100747.59;5031785;28;20029;-77
2022/09/12 10:39:16;;;;;;;4.70;4.38;;;;;;;20.75;53.81;100747.59;5031088;28;20037;-78
2022/09/12 10:41:41;;;;;;;5.13;4.72;;;;;;;20.70;54.80;100749.63;5029458;28;20442;-77
2022/09/12 10:44:12;;;;;;;5.53;5.10;;;;;;;20.86;53.40;100756.03;5032632;28;20037;-77
2022/09/12 10:46:38;;;;;;;5.07;4.68;;;;;;;21.05;51.52;100750.69;5039467;28;20037;-78
2022/09/12 10:49:13;;;;;;;6.82;5.00;;;;;;;21.48;51.22;100740.63;5034786;28;20033;-77
2022/09/12 10:51:38;;;;;;;5.72;5.15;;;;;;;21.83;51.63;100738.94;5033501;28;20278;-77
2022/09/12 10:54:09;;;;;;;6.07;5.57;;;;;;;21.69;51.46;100722.63;5035578;28;20029;-78
2022/09/12 10:57:00;;;;;;;5.85;5.40;;;;;;;21.72;51.80;100725.16;5030284;28;20484;-77
2022/09/12 10:59:43;;;;;;;6.20;5.70;;;;;;;21.83;51.27;100735.38;5032335;28;20033;-77
2022/09/12 11:02:39;;;;;;;7.07;6.13;;;;;;;21.95;50.68;100725.81;5037414;28;20136;-77
2022/09/12 11:05:14;;;;;;;6.30;5.80;;;;;;;21.88;51.86;100723.47;5036820;28;20045;-77
2022/09/12 11:07:49;;;;;;;6.75;6.28;;;;;;;22.26;50.67;100722.47;5040102;28;20047;-77
2022/09/12 11:10:25;;;;;;;6.22;5.65;;;;;;;22.54;48.86;100719.22;5033218;28;20083;-77
2022/09/12 11:13:20;;;;;;;5.63;5.13;;;;;;;22.73;47.72;100719.97;5039714;28;20037;-77
2022/09/12 11:16:15;;;;;;;5.40;4.97;;;;;;;21.96;48.99;100717.69;4994873;28;20042;-77
2022/09/12 11:19:09;;;;;;;6.00;5.45;;;;;;;21.83;53.86;100725.50;5036119;28;20091;-77
2022/09/12 11:21:44;;;;;;;7.25;6.55;;;;;;;22.06;55.38;100724.34;5037081;28;20037;-77
2022/09/12 11:24:32;;;;;;;7.70;7.00;;;;;;;22.41;54.42;100710.94;5039587;28;20041;-77
2022/09/12 11:27:33;;;;;;;8.50;7.80;;;;;;;22.81;53.27;100710.63;5055678;28;20049;-77
2022/09/12 11:30:05;;;;;;;7.63;6.93;;;;;;;23.12;53.70;100713.38;5036235;28;20618;-77